sensor_id;sensor_type;location;lat;lon;timestamp;temperature;humidity
35563;DHT22;21665;40.108;18.302;2023-02-03T06:51:04;7.00;99.90
35563;DHT22;21665;40.108;18.302;2023-02-03T06:53:31;7.30;99.90
35563;DHT22;21665;40.108;18.302;2023-02-03T06:56:03;7.70;99.90
35563;DHT22;21665;40.108;18.302;2023-02-03T06:58:30;7.90;99.90
35563;DHT22;21665;40.108;18.302;2023-02-03T07:00:59;8.10;99.90
35563;DHT22;21665;40.108;18.302;2023-02-03T07:03:25;8.40;99.90
35563;DHT22;21665;40.108;18.302;2023-02-03T07:05:52;8.50;99.90
35563;DHT22;21665;40.108;18.302;2023-02-03T07:08:18;8.70;99.90
35563;DHT22;21665;40.108;18.302;2023-02-03T07:10:45;8.90;99.90
35563;DHT22;21665;40.108;18.302;2023-02-03T07:13:15;9.10;99.90
35563;DHT22;21665;40.108;18.302;2023-02-03T07:15:41;9.30;99.90
35563;DHT22;21665;40.108;18.302;2023-02-03T07:18:09;9.10;99.90
35563;DHT22;21665;40.108;18.302;2023-02-03T07:20:36;9.20;99.90
35563;DHT22;21665;40.108;18.302;2023-02-03T07:23:03;9.40;99.90
35563;DHT22;21665;40.108;18.302;2023-02-03T07:25:30;9.70;99.90
35563;DHT22;21665;40.108;18.302;2023-02-03T07:27:56;9.90;99.90
35563;DHT22;21665;40.108;18.302;2023-02-03T07:30:23;10.00;99.90
35563;DHT22;21665;40.108;18.302;2023-02-03T07:32:51;10.00;99.90
35563;DHT22;21665;40.108;18.302;2023-02-03T07:35:18;10.10;99.90
35563;DHT22;21665;40.108;18.302;2023-02-03T07:37:45;10.40;99.90
35563;DHT22;21665;40.108;18.302;2023-02-03T07:40:13;10.60;99.90
35563;DHT22;21665;40.108;18.302;2023-02-03T07:42:44;10.80;99.90
35563;DHT22;21665;40.108;18.302;2023-02-03T07:45:16;10.90;99.90
35563;DHT22;21665;40.108;18.302;2023-02-03T07:47:43;11.00;99.90
35563;DHT22;21665;40.108;18.302;2023-02-03T07:50:13;11.20;99.90
35563;DHT22;21665;40.108;18.302;2023-02-03T07:52:39;11.30;99.90
35563;DHT22;21665;40.108;18.302;2023-02-03T07:55:07;11.40;99.90
35563;DHT22;21665;40.108;18.302;2023-02-03T07:57:34;11.50;99.90
35563;DHT22;21665;40.108;18.302;2023-02-03T08:00:01;11.60;99.90
35563;DHT22;21665;40.108;18.302;2023-02-03T08:02:27;11.50;99.90
35563;DHT22;21665;40.108;18.302;2023-02-03T08:04:54;11.70;99.90
35563;DHT22;21665;40.108;18.302;2023-02-03T08:07:23;12.00;99.90
35563;DHT22;21665;40.108;18.302;2023-02-03T08:09:49;12.10;99.90
35563;DHT22;21665;40.108;18.302;2023-02-03T08:12:16;12.30;99.90
35563;DHT22;21665;40.108;18.302;2023-02-03T08:14:43;12.40;99.90
35563;DHT22;21665;40.108;18.302;2023-02-03T08:17:09;12.60;99.90
35563;DHT22;21665;40.108;18.302;2023-02-03T08:19:38;12.80;99.90
35563;DHT22;21665;40.108;18.302;2023-02-03T08:22:16;13.20;99.90
35563;DHT22;21665;40.108;18.302;2023-02-03T08:25:00;13.40;99.90
35563;DHT22;21665;40.108;18.302;2023-02-03T08:27:26;13.50;99.90
35563;DHT22;21665;40.108;18.302;2023-02-03T08:29:53;13.40;99.90
35563;DHT22;21665;40.108;18.302;2023-02-03T08:32:20;13.50;99.90
35563;DHT22;21665;40.108;18.302;2023-02-03T08:34:53;13.40;99.90
35563;DHT22;21665;40.108;18.302;2023-02-03T08:37:29;13.10;99.90
35563;DHT22;21665;40.108;18.302;2023-02-03T08:40:01;12.70;99.90
35563;DHT22;21665;40.108;18.302;2023-02-03T08:42:27;12.50;99.90
35563;DHT22;21665;40.108;18.302;2023-02-03T08:44:54;12.20;99.90
35563;DHT22;21665;40.108;18.302;2023-02-03T08:47:20;12.20;99.90
35563;DHT22;21665;40.108;18.302;2023-02-03T08:52:42;12.50;99.90
35563;DHT22;21665;40.108;18.302;2023-02-03T08:55:08;12.60;99.90
35563;DHT22;21665;40.108;18.302;2023-02-03T08:57:38;12.60;99.90
35563;DHT22;21665;40.108;18.302;2023-02-03T09:00:10;12.50;99.90
35563;DHT22;21665;40.108;18.302;2023-02-03T09:02:39;12.40;99.90
35563;DHT22;21665;40.108;18.302;2023-02-03T09:05:06;12.50;99.90
35563;DHT22;21665;40.108;18.302;2023-02-03T09:07:33;12.40;99.90
35563;DHT22;21665;40.108;18.302;2023-02-03T09:10:02;12.60;99.90
35563;DHT22;21665;40.108;18.302;2023-02-03T09:12:28;12.60;99.90
35563;DHT22;21665;40.108;18.302;2023-02-03T09:14:55;12.60;99.90
35563;DHT22;21665;40.108;18.302;2023-02-03T09:17:22;12.80;99.90
35563;DHT22;21665;40.108;18.302;2023-02-03T09:19:48;12.80;99.90
35563;DHT22;21665;40.108;18.302;2023-02-03T09:22:14;12.80;99.90
35563;DHT22;21665;40.108;18.302;2023-02-03T09:24:41;12.80;99.90
35563;DHT22;21665;40.108;18.302;2023-02-03T09:27:08;12.90;99.90
35563;DHT22;21665;40.108;18.302;2023-02-03T09:29:34;12.80;99.90
35563;DHT22;21665;40.108;18.302;2023-02-03T09:32:01;12.90;99.90
35563;DHT22;21665;40.108;18.302;2023-02-03T09:34:32;13.00;99.90
35563;DHT22;21665;40.108;18.302;2023-02-03T09:37:06;13.00;99.90
35563;DHT22;21665;40.108;18.302;2023-02-03T09:39:33;13.10;99.90
35563;DHT22;21665;40.108;18.302;2023-02-03T09:47:34;13.40;99.90
35563;DHT22;21665;40.108;18.302;2023-02-03T09:50:04;13.40;99.90
35563;DHT22;21665;40.108;18.302;2023-02-03T09:52:34;13.40;99.90
35563;DHT22;21665;40.108;18.302;2023-02-03T10:00:31;13.40;99.90
35563;DHT22;21665;40.108;18.302;2023-02-03T10:14:04;13.40;99.90
35563;DHT22;21665;40.108;18.302;2023-02-03T10:19:17;13.50;99.90
35563;DHT22;21665;40.108;18.302;2023-02-03T10:21:57;13.50;99.90
35563;DHT22;21665;40.108;18.302;2023-02-03T10:24:38;13.50;99.90
35563;DHT22;21665;40.108;18.302;2023-02-03T10:27:17;13.50;99.90
35563;DHT22;21665;40.108;18.302;2023-02-03T10:29:58;13.50;99.90
35563;DHT22;21665;40.108;18.302;2023-02-03T10:32:27;13.60;99.90
35563;DHT22;21665;40.108;18.302;2023-02-03T10:34:54;13.70;99.90
35563;DHT22;21665;40.108;18.302;2023-02-03T10:39:56;13.60;99.90
35563;DHT22;21665;40.108;18.302;2023-02-03T10:42:25;13.60;99.90
35563;DHT22;21665;40.108;18.302;2023-02-03T10:45:12;13.60;99.90
35563;DHT22;21665;40.108;18.302;2023-02-03T10:47:43;13.70;99.90
35563;DHT22;21665;40.108;18.302;2023-02-03T10:50:20;13.70;99.90
35563;DHT22;21665;40.108;18.302;2023-02-03T10:52:47;13.70;99.90
35563;DHT22;21665;40.108;18.302;2023-02-03T10:57:50;13.70;99.90
35563;DHT22;21665;40.108;18.302;2023-02-03T11:02:44;13.70;99.90
35563;DHT22;21665;40.108;18.302;2023-02-03T11:05:19;13.60;99.90
35563;DHT22;21665;40.108;18.302;2023-02-03T11:07:46;13.50;99.90
35563;DHT22;21665;40.108;18.302;2023-02-03T11:10:36;13.40;99.90
35563;DHT22;21665;40.108;18.302;2023-02-03T11:13:24;13.40;99.90
35563;DHT22;21665;40.108;18.302;2023-02-03T11:15:59;13.40;99.90
35563;DHT22;21665;40.108;18.302;2023-02-03T11:21:21;13.50;99.90
35563;DHT22;21665;40.108;18.302;2023-02-03T11:26:40;13.50;99.90
35563;DHT22;21665;40.108;18.302;2023-02-03T11:29:18;13.50;99.90
35563;DHT22;21665;40.108;18.302;2023-02-03T11:31:50;13.50;99.90
35563;DHT22;21665;40.108;18.302;2023-02-03T11:34:43;13.50;99.90
35563;DHT22;21665;40.108;18.302;2023-02-03T11:37:36;13.50;99.90
35563;DHT22;21665;40.108;18.302;2023-02-03T11:42:34;13.70;99.90
35563;DHT22;21665;40.108;18.302;2023-02-03T11:47:49;13.60;99.90
35563;DHT22;21665;40.108;18.302;2023-02-03T12:10:20;13.40;99.90
35563;DHT22;21665;40.108;18.302;2023-02-03T12:18:48;13.20;99.90
35563;DHT22;21665;40.108;18.302;2023-02-03T12:21:43;13.30;99.90
35563;DHT22;21665;40.108;18.302;2023-02-03T12:27:16;13.30;99.90
35563;DHT22;21665;40.108;18.302;2023-02-03T12:29:54;13.30;99.90
35563;DHT22;21665;40.108;18.302;2023-02-03T12:37:24;13.30;99.90
35563;DHT22;21665;40.108;18.302;2023-02-03T12:40:04;13.20;99.90
35563;DHT22;21665;40.108;18.302;2023-02-03T12:42:45;13.30;99.90
35563;DHT22;21665;40.108;18.302;2023-02-03T12:45:19;13.40;99.90
35563;DHT22;21665;40.108;18.302;2023-02-03T12:48:09;13.30;99.90
35563;DHT22;21665;40.108;18.302;2023-02-03T12:53:41;13.30;99.90
35563;DHT22;21665;40.108;18.302;2023-02-03T12:56:08;13.40;99.90
35563;DHT22;21665;40.108;18.302;2023-02-03T12:58:56;13.30;99.90
35563;DHT22;21665;40.108;18.302;2023-02-03T13:01:35;13.30;99.90
35563;DHT22;21665;40.108;18.302;2023-02-03T13:04:20;13.40;99.90
35563;DHT22;21665;40.108;18.302;2023-02-03T13:09:37;13.20;99.90
35563;DHT22;21665;40.108;18.302;2023-02-03T13:12:24;13.30;99.90
35563;DHT22;21665;40.108;18.302;2023-02-03T13:15:26;13.20;99.90
35563;DHT22;21665;40.108;18.302;2023-02-03T13:18:34;13.30;99.90
35563;DHT22;21665;40.108;18.302;2023-02-03T13:20:55;13.40;99.90
35563;DHT22;21665;40.108;18.302;2023-02-03T13:23:22;13.40;99.90
35563;DHT22;21665;40.108;18.302;2023-02-03T13:29:13;13.30;99.90
35563;DHT22;21665;40.108;18.302;2023-02-03T13:32:09;13.30;99.90
35563;DHT22;21665;40.108;18.302;2023-02-03T13:42:51;13.20;99.90
35563;DHT22;21665;40.108;18.302;2023-02-03T13:45:47;13.10;99.90
35563;DHT22;21665;40.108;18.302;2023-02-03T13:48:24;13.10;99.90
35563;DHT22;21665;40.108;18.302;2023-02-03T13:53:40;13.10;99.90
35563;DHT22;21665;40.108;18.302;2023-02-03T13:56:18;13.10;99.90
35563;DHT22;21665;40.108;18.302;2023-02-03T14:01:42;13.10;99.90
35563;DHT22;21665;40.108;18.302;2023-02-03T14:14:58;12.90;99.90
35563;DHT22;21665;40.108;18.302;2023-02-03T14:23:19;12.70;99.90
35563;DHT22;21665;40.108;18.302;2023-02-03T14:25:58;12.60;99.90
35563;DHT22;21665;40.108;18.302;2023-02-03T14:28:44;12.50;99.90
35563;DHT22;21665;40.108;18.302;2023-02-03T14:31:18;12.60;99.90
35563;DHT22;21665;40.108;18.302;2023-02-03T14:36:44;12.60;99.90
35563;DHT22;21665;40.108;18.302;2023-02-03T14:58:40;12.30;99.90
35563;DHT22;21665;40.108;18.302;2023-02-03T15:02:09;12.30;99.90
35563;DHT22;21665;40.108;18.302;2023-02-03T15:06:50;12.10;99.90
35563;DHT22;21665;40.108;18.302;2023-02-03T15:11:52;12.00;99.90
35563;DHT22;21665;40.108;18.302;2023-02-03T15:14:27;11.90;99.90
35563;DHT22;21665;40.108;18.302;2023-02-03T15:17:09;11.90;99.90
35563;DHT22;21665;40.108;18.302;2023-02-03T15:19:43;11.90;99.90
35563;DHT22;21665;40.108;18.302;2023-02-03T15:22:27;11.90;99.90
35563;DHT22;21665;40.108;18.302;2023-02-03T15:25:01;11.90;99.90
35563;DHT22;21665;40.108;18.302;2023-02-03T15:27:31;11.80;99.90
35563;DHT22;21665;40.108;18.302;2023-02-03T15:29:57;11.80;99.90
35563;DHT22;21665;40.108;18.302;2023-02-03T15:32:32;11.80;99.90
35563;DHT22;21665;40.108;18.302;2023-02-03T15:35:03;11.60;99.90
35563;DHT22;21665;40.108;18.302;2023-02-03T15:37:41;11.60;99.90
35563;DHT22;21665;40.108;18.302;2023-02-03T15:40:18;11.50;99.90
35563;DHT22;21665;40.108;18.302;2023-02-03T15:43:01;11.40;99.90
35563;DHT22;21665;40.108;18.302;2023-02-03T15:45:32;11.40;99.90
35563;DHT22;21665;40.108;18.302;2023-02-03T15:51:25;11.30;99.90
35563;DHT22;21665;40.108;18.302;2023-02-03T15:54:03;11.20;99.90
35563;DHT22;21665;40.108;18.302;2023-02-03T15:56:39;11.20;99.90
35563;DHT22;21665;40.108;18.302;2023-02-03T15:59:28;11.10;99.90
35563;DHT22;21665;40.108;18.302;2023-02-03T16:01:55;10.90;99.90
35563;DHT22;21665;40.108;18.302;2023-02-03T16:04:24;10.80;99.90
35563;DHT22;21665;40.108;18.302;2023-02-03T16:06:53;10.80;99.90
35563;DHT22;21665;40.108;18.302;2023-02-03T16:12:17;10.50;99.90
35563;DHT22;21665;40.108;18.302;2023-02-03T16:14:44;10.40;99.90
35563;DHT22;21665;40.108;18.302;2023-02-03T16:19:50;10.20;99.90
35563;DHT22;21665;40.108;18.302;2023-02-03T16:22:28;10.20;99.90
35563;DHT22;21665;40.108;18.302;2023-02-03T16:24:56;10.10;99.90
35563;DHT22;21665;40.108;18.302;2023-02-03T16:29:53;9.80;99.90
35563;DHT22;21665;40.108;18.302;2023-02-03T16:32:38;9.70;99.90
35563;DHT22;21665;40.108;18.302;2023-02-03T16:35:23;9.50;99.90
35563;DHT22;21665;40.108;18.302;2023-02-03T16:38:15;9.30;99.90
35563;DHT22;21665;40.108;18.302;2023-02-03T16:41:01;9.00;99.90
35563;DHT22;21665;40.108;18.302;2023-02-03T16:43:47;9.00;99.90
35563;DHT22;21665;40.108;18.302;2023-02-03T16:46:32;8.90;99.90
35563;DHT22;21665;40.108;18.302;2023-02-03T16:49:17;8.80;99.90
35563;DHT22;21665;40.108;18.302;2023-02-03T16:52:02;8.60;99.90
35563;DHT22;21665;40.108;18.302;2023-02-03T16:54:30;8.60;99.90
35563;DHT22;21665;40.108;18.302;2023-02-03T16:57:00;8.50;99.90
35563;DHT22;21665;40.108;18.302;2023-02-03T16:59:27;8.40;99.90
35563;DHT22;21665;40.108;18.302;2023-02-03T17:01:53;8.30;99.90
35563;DHT22;21665;40.108;18.302;2023-02-03T17:04:20;8.20;99.90
35563;DHT22;21665;40.108;18.302;2023-02-03T17:06:46;8.10;99.90
35563;DHT22;21665;40.108;18.302;2023-02-03T17:09:17;8.00;99.90
35563;DHT22;21665;40.108;18.302;2023-02-03T17:11:48;7.90;99.90
35563;DHT22;21665;40.108;18.302;2023-02-03T17:14:14;7.90;99.90
35563;DHT22;21665;40.108;18.302;2023-02-03T17:16:41;7.70;99.90
35563;DHT22;21665;40.108;18.302;2023-02-03T17:19:11;7.60;99.90
35563;DHT22;21665;40.108;18.302;2023-02-03T17:21:38;7.50;99.90
35563;DHT22;21665;40.108;18.302;2023-02-03T17:24:04;7.50;99.90
35563;DHT22;21665;40.108;18.302;2023-02-03T17:26:31;7.50;99.90
35563;DHT22;21665;40.108;18.302;2023-02-03T17:28:59;7.50;99.90
35563;DHT22;21665;40.108;18.302;2023-02-03T17:31:29;7.60;99.90
35563;DHT22;21665;40.108;18.302;2023-02-03T17:33:55;7.50;99.90
35563;DHT22;21665;40.108;18.302;2023-02-03T17:36:23;7.50;99.90
35563;DHT22;21665;40.108;18.302;2023-02-03T17:38:52;7.40;99.90
35563;DHT22;21665;40.108;18.302;2023-02-03T17:41:23;7.30;99.90
35563;DHT22;21665;40.108;18.302;2023-02-03T17:43:51;7.20;99.90
35563;DHT22;21665;40.108;18.302;2023-02-03T17:46:20;7.20;99.90
35563;DHT22;21665;40.108;18.302;2023-02-03T17:48:48;7.10;99.90
35563;DHT22;21665;40.108;18.302;2023-02-03T17:51:20;7.10;99.90
35563;DHT22;21665;40.108;18.302;2023-02-03T17:53:47;7.10;99.90
35563;DHT22;21665;40.108;18.302;2023-02-03T17:56:23;7.10;99.90
35563;DHT22;21665;40.108;18.302;2023-02-03T17:58:55;7.10;99.90
35563;DHT22;21665;40.108;18.302;2023-02-03T18:01:22;7.10;99.90
35563;DHT22;21665;40.108;18.302;2023-02-03T18:03:56;7.00;99.90
35563;DHT22;21665;40.108;18.302;2023-02-03T18:06:25;7.00;99.90
35563;DHT22;21665;40.108;18.302;2023-02-03T18:08:56;6.90;99.90
35563;DHT22;21665;40.108;18.302;2023-02-03T18:11:29;6.90;99.90
35563;DHT22;21665;40.108;18.302;2023-02-03T18:13:57;6.90;99.90
35563;DHT22;21665;40.108;18.302;2023-02-03T18:16:27;6.90;99.90
35563;DHT22;21665;40.108;18.302;2023-02-03T18:19:02;6.90;99.90
35563;DHT22;21665;40.108;18.302;2023-02-03T18:21:36;6.90;99.90
35563;DHT22;21665;40.108;18.302;2023-02-03T18:24:04;6.90;99.90
35563;DHT22;21665;40.108;18.302;2023-02-03T18:26:35;7.00;99.90
35563;DHT22;21665;40.108;18.302;2023-02-03T18:29:04;7.00;99.90
35563;DHT22;21665;40.108;18.302;2023-02-03T18:31:31;6.90;99.90
35563;DHT22;21665;40.108;18.302;2023-02-03T18:34:02;6.80;99.90
35563;DHT22;21665;40.108;18.302;2023-02-03T18:36:30;6.70;99.90
35563;DHT22;21665;40.108;18.302;2023-02-03T18:39:00;6.60;99.90
35563;DHT22;21665;40.108;18.302;2023-02-03T18:41:27;6.50;99.90
35563;DHT22;21665;40.108;18.302;2023-02-03T18:43:53;6.40;99.90
35563;DHT22;21665;40.108;18.302;2023-02-03T18:46:29;6.30;99.90
35563;DHT22;21665;40.108;18.302;2023-02-03T18:48:56;6.10;99.90
35563;DHT22;21665;40.108;18.302;2023-02-03T18:51:24;6.00;99.90
35563;DHT22;21665;40.108;18.302;2023-02-03T18:53:54;6.00;99.90
35563;DHT22;21665;40.108;18.302;2023-02-03T18:56:26;5.90;99.90
35563;DHT22;21665;40.108;18.302;2023-02-03T18:59:05;5.80;99.90
35563;DHT22;21665;40.108;18.302;2023-02-03T19:01:36;5.70;99.90
35563;DHT22;21665;40.108;18.302;2023-02-03T19:04:04;5.70;99.90
35563;DHT22;21665;40.108;18.302;2023-02-03T19:06:32;5.60;99.90
35563;DHT22;21665;40.108;18.302;2023-02-03T19:08:59;5.60;99.90
35563;DHT22;21665;40.108;18.302;2023-02-03T19:11:26;5.70;99.90
35563;DHT22;21665;40.108;18.302;2023-02-03T19:13:52;5.70;99.90
35563;DHT22;21665;40.108;18.302;2023-02-03T19:16:22;5.80;99.90
35563;DHT22;21665;40.108;18.302;2023-02-03T19:18:51;5.90;99.90
35563;DHT22;21665;40.108;18.302;2023-02-03T19:21:18;5.90;99.90
35563;DHT22;21665;40.108;18.302;2023-02-03T19:23:45;5.90;99.90
35563;DHT22;21665;40.108;18.302;2023-02-03T19:26:12;5.80;99.90
35563;DHT22;21665;40.108;18.302;2023-02-03T19:28:40;5.80;99.90
35563;DHT22;21665;40.108;18.302;2023-02-03T19:31:13;5.70;99.90
35563;DHT22;21665;40.108;18.302;2023-02-03T19:33:43;5.70;99.90
35563;DHT22;21665;40.108;18.302;2023-02-03T19:36:15;5.70;99.90
35563;DHT22;21665;40.108;18.302;2023-02-03T19:38:45;5.80;99.90
35563;DHT22;21665;40.108;18.302;2023-02-03T19:41:11;5.80;99.90
35563;DHT22;21665;40.108;18.302;2023-02-03T19:43:38;5.80;99.90
35563;DHT22;21665;40.108;18.302;2023-02-03T19:46:05;5.80;99.90
35563;DHT22;21665;40.108;18.302;2023-02-03T19:48:32;5.80;99.90
35563;DHT22;21665;40.108;18.302;2023-02-03T19:50:59;5.80;99.90
35563;DHT22;21665;40.108;18.302;2023-02-03T19:53:25;5.70;99.90
35563;DHT22;21665;40.108;18.302;2023-02-03T19:55:52;5.80;99.90
35563;DHT22;21665;40.108;18.302;2023-02-03T19:58:19;5.80;99.90
35563;DHT22;21665;40.108;18.302;2023-02-03T20:00:46;5.70;99.90
35563;DHT22;21665;40.108;18.302;2023-02-03T20:03:12;5.70;99.90
35563;DHT22;21665;40.108;18.302;2023-02-03T20:05:39;5.60;99.90
35563;DHT22;21665;40.108;18.302;2023-02-03T20:08:05;5.50;99.90
35563;DHT22;21665;40.108;18.302;2023-02-03T20:10:32;5.50;99.90
35563;DHT22;21665;40.108;18.302;2023-02-03T20:12:59;5.40;99.90
35563;DHT22;21665;40.108;18.302;2023-02-03T20:15:26;5.30;99.90
35563;DHT22;21665;40.108;18.302;2023-02-03T20:18:03;5.30;99.90
35563;DHT22;21665;40.108;18.302;2023-02-03T20:20:35;5.40;99.90
35563;DHT22;21665;40.108;18.302;2023-02-03T20:23:02;5.40;99.90
35563;DHT22;21665;40.108;18.302;2023-02-03T20:25:48;5.40;99.90
35563;DHT22;21665;40.108;18.302;2023-02-03T20:28:42;5.60;99.90
35563;DHT22;21665;40.108;18.302;2023-02-03T20:31:12;5.70;99.90
35563;DHT22;21665;40.108;18.302;2023-02-03T20:33:38;5.70;99.90
35563;DHT22;21665;40.108;18.302;2023-02-03T20:36:09;5.70;99.90
35563;DHT22;21665;40.108;18.302;2023-02-03T20:38:47;5.70;99.90
35563;DHT22;21665;40.108;18.302;2023-02-03T20:41:18;5.60;99.90
35563;DHT22;21665;40.108;18.302;2023-02-03T20:43:52;5.60;99.90
35563;DHT22;21665;40.108;18.302;2023-02-03T20:46:22;5.50;99.90
35563;DHT22;21665;40.108;18.302;2023-02-03T20:48:50;5.50;99.90
35563;DHT22;21665;40.108;18.302;2023-02-03T20:51:20;5.40;99.90
35563;DHT22;21665;40.108;18.302;2023-02-03T20:53:52;5.40;99.90
35563;DHT22;21665;40.108;18.302;2023-02-03T20:56:24;5.40;99.90
35563;DHT22;21665;40.108;18.302;2023-02-03T20:58:51;5.40;99.90
35563;DHT22;21665;40.108;18.302;2023-02-03T21:01:19;5.40;99.90
35563;DHT22;21665;40.108;18.302;2023-02-03T21:03:47;5.40;99.90
35563;DHT22;21665;40.108;18.302;2023-02-03T21:06:33;5.40;99.90
35563;DHT22;21665;40.108;18.302;2023-02-03T21:09:15;5.40;99.90
35563;DHT22;21665;40.108;18.302;2023-02-03T21:11:44;5.40;99.90
35563;DHT22;21665;40.108;18.302;2023-02-03T21:14:54;5.40;99.90
35563;DHT22;21665;40.108;18.302;2023-02-03T21:17:21;5.20;99.90
35563;DHT22;21665;40.108;18.302;2023-02-03T21:19:49;5.20;99.90
35563;DHT22;21665;40.108;18.302;2023-02-03T21:22:22;5.10;99.90
35563;DHT22;21665;40.108;18.302;2023-02-03T21:24:53;5.10;99.90
35563;DHT22;21665;40.108;18.302;2023-02-03T21:27:33;5.10;99.90
35563;DHT22;21665;40.108;18.302;2023-02-03T21:30:09;5.20;99.90
35563;DHT22;21665;40.108;18.302;2023-02-03T21:32:48;5.30;99.90
35563;DHT22;21665;40.108;18.302;2023-02-03T21:35:30;5.40;99.90
35563;DHT22;21665;40.108;18.302;2023-02-03T21:37:59;5.40;99.90
35563;DHT22;21665;40.108;18.302;2023-02-03T21:40:31;5.40;99.90
35563;DHT22;21665;40.108;18.302;2023-02-03T21:42:59;5.40;99.90
35563;DHT22;21665;40.108;18.302;2023-02-03T21:45:36;5.40;99.90
35563;DHT22;21665;40.108;18.302;2023-02-03T21:48:27;5.50;99.90
35563;DHT22;21665;40.108;18.302;2023-02-03T21:50:58;5.50;99.90
35563;DHT22;21665;40.108;18.302;2023-02-03T21:53:29;5.50;99.90
35563;DHT22;21665;40.108;18.302;2023-02-03T21:56:19;5.50;99.90
35563;DHT22;21665;40.108;18.302;2023-02-03T21:58:47;5.50;99.90
35563;DHT22;21665;40.108;18.302;2023-02-03T22:01:17;5.50;99.90
35563;DHT22;21665;40.108;18.302;2023-02-03T22:03:50;5.40;99.90
35563;DHT22;21665;40.108;18.302;2023-02-03T22:09:25;5.20;99.90
35563;DHT22;21665;40.108;18.302;2023-02-03T22:11:52;5.10;99.90
35563;DHT22;21665;40.108;18.302;2023-02-03T22:14:19;5.00;99.90
35563;DHT22;21665;40.108;18.302;2023-02-03T22:16:46;4.90;99.90
35563;DHT22;21665;40.108;18.302;2023-02-03T22:19:13;4.90;99.90
35563;DHT22;21665;40.108;18.302;2023-02-03T22:21:42;4.90;99.90
35563;DHT22;21665;40.108;18.302;2023-02-03T22:24:09;4.80;99.90
35563;DHT22;21665;40.108;18.302;2023-02-03T22:26:36;4.80;99.90
35563;DHT22;21665;40.108;18.302;2023-02-03T22:29:02;4.80;99.90
35563;DHT22;21665;40.108;18.302;2023-02-03T22:31:30;4.80;99.90
35563;DHT22;21665;40.108;18.302;2023-02-03T22:33:56;4.70;99.90
35563;DHT22;21665;40.108;18.302;2023-02-03T22:36:23;4.70;99.90
35563;DHT22;21665;40.108;18.302;2023-02-03T22:38:51;4.70;99.90
35563;DHT22;21665;40.108;18.302;2023-02-03T22:41:18;4.70;99.90
35563;DHT22;21665;40.108;18.302;2023-02-03T22:43:46;4.70;99.90
35563;DHT22;21665;40.108;18.302;2023-02-03T22:46:15;4.70;99.90
35563;DHT22;21665;40.108;18.302;2023-02-03T22:48:42;4.60;99.90
35563;DHT22;21665;40.108;18.302;2023-02-03T22:51:08;4.70;99.90
35563;DHT22;21665;40.108;18.302;2023-02-03T22:53:35;4.70;99.90
35563;DHT22;21665;40.108;18.302;2023-02-03T22:56:04;4.80;99.90
35563;DHT22;21665;40.108;18.302;2023-02-03T22:58:31;4.80;99.90
35563;DHT22;21665;40.108;18.302;2023-02-03T23:00:58;4.80;99.90
35563;DHT22;21665;40.108;18.302;2023-02-03T23:03:24;4.80;99.90
35563;DHT22;21665;40.108;18.302;2023-02-03T23:05:51;4.80;99.90
35563;DHT22;21665;40.108;18.302;2023-02-03T23:08:17;4.70;99.90
35563;DHT22;21665;40.108;18.302;2023-02-03T23:10:44;4.70;99.90
35563;DHT22;21665;40.108;18.302;2023-02-03T23:13:11;4.70;99.90
35563;DHT22;21665;40.108;18.302;2023-02-03T23:15:38;4.70;99.90
35563;DHT22;21665;40.108;18.302;2023-02-03T23:18:11;4.70;99.90
35563;DHT22;21665;40.108;18.302;2023-02-03T23:20:38;4.70;99.90
35563;DHT22;21665;40.108;18.302;2023-02-03T23:23:05;4.60;99.90
35563;DHT22;21665;40.108;18.302;2023-02-03T23:25:32;4.70;99.90
35563;DHT22;21665;40.108;18.302;2023-02-03T23:27:58;4.60;99.90
35563;DHT22;21665;40.108;18.302;2023-02-03T23:30:25;4.60;99.90
35563;DHT22;21665;40.108;18.302;2023-02-03T23:32:51;4.60;99.90
35563;DHT22;21665;40.108;18.302;2023-02-03T23:35:18;4.70;99.90
35563;DHT22;21665;40.108;18.302;2023-02-03T23:38:04;4.70;99.90
35563;DHT22;21665;40.108;18.302;2023-02-03T23:40:30;4.70;99.90
35563;DHT22;21665;40.108;18.302;2023-02-03T23:42:57;4.80;99.90
35563;DHT22;21665;40.108;18.302;2023-02-03T23:45:23;4.90;99.90
35563;DHT22;21665;40.108;18.302;2023-02-03T23:47:50;5.10;99.90
35563;DHT22;21665;40.108;18.302;2023-02-03T23:50:17;5.20;99.90
35563;DHT22;21665;40.108;18.302;2023-02-03T23:52:47;5.40;99.90
35563;DHT22;21665;40.108;18.302;2023-02-03T23:55:16;5.50;99.90
35563;DHT22;21665;40.108;18.302;2023-02-03T23:57:44;5.70;99.90
